createdAt,value
2023-05-14T00:00:19.213Z,16.92
2023-05-14T00:02:45.936Z,15.38
2023-05-14T00:05:12.564Z,15.75
2023-05-14T00:07:39.044Z,15.30
2023-05-14T00:10:05.965Z,14.70
2023-05-14T00:12:32.749Z,18.85
2023-05-14T00:14:59.221Z,19.55
2023-05-14T00:17:25.643Z,14.48
2023-05-14T00:19:52.119Z,16.08
2023-05-14T00:22:18.559Z,16.27
2023-05-14T00:24:45.042Z,13.35
2023-05-14T00:27:11.527Z,17.17
2023-05-14T00:29:38.922Z,15.05
2023-05-14T00:32:05.808Z,18.35
2023-05-14T00:34:32.250Z,16.70
2023-05-14T00:36:58.655Z,16.98
2023-05-14T00:39:25.087Z,16.27
2023-05-14T00:41:51.525Z,16.08
2023-05-14T00:44:17.952Z,15.30
2023-05-14T00:46:44.460Z,15.35
2023-05-14T00:49:11.275Z,19.75
2023-05-14T00:51:38.224Z,15.07
2023-05-14T00:54:04.927Z,16.55
2023-05-14T00:56:31.610Z,14.32
2023-05-14T00:58:58.371Z,17.17
2023-05-14T01:01:24.821Z,17.50
2023-05-14T01:03:53.486Z,14.68
2023-05-14T01:06:51.906Z,15.73
2023-05-14T01:09:44.589Z,13.40
2023-05-14T01:12:54.812Z,13.48
2023-05-14T01:15:25.661Z,12.93
2023-05-14T01:17:56.527Z,15.70
2023-05-14T01:20:23.493Z,14.70
2023-05-14T01:22:50.217Z,14.65
2023-05-14T01:25:16.688Z,15.90
2023-05-14T01:28:06.400Z,14.57
2023-05-14T01:30:36.462Z,12.73
2023-05-14T01:33:08.862Z,16.98
2023-05-14T01:35:35.634Z,12.55
2023-05-14T01:38:05.236Z,13.90
2023-05-14T01:40:32.936Z,16.17
2023-05-14T01:43:00.749Z,13.85
2023-05-14T01:45:27.240Z,16.35
2023-05-14T01:47:53.729Z,14.23
2023-05-14T01:50:20.173Z,15.35
2023-05-14T01:52:48.189Z,16.88
2023-05-14T01:55:15.743Z,12.30
2023-05-14T01:57:42.154Z,14.95
2023-05-14T02:00:09.335Z,14.57
2023-05-14T02:02:41.394Z,14.85
2023-05-14T02:05:11.517Z,14.52
2023-05-14T02:07:38.360Z,16.63
2023-05-14T02:10:05.397Z,16.90
2023-05-14T02:12:31.930Z,17.42
2023-05-14T02:14:58.333Z,16.63
2023-05-14T02:17:26.431Z,14.95
2023-05-14T02:19:52.967Z,13.50
2023-05-14T02:22:19.421Z,14.07
2023-05-14T02:24:45.973Z,15.20
2023-05-14T02:27:13.246Z,15.27
2023-05-14T02:29:39.697Z,16.55
2023-05-14T02:32:06.513Z,12.65
2023-05-14T02:34:34.431Z,15.77
2023-05-14T02:37:01.129Z,13.05
2023-05-14T02:39:27.633Z,15.38
2023-05-14T02:41:54.079Z,13.02
2023-05-14T02:44:20.629Z,13.73
2023-05-14T02:46:47.555Z,14.80
2023-05-14T02:49:14.334Z,13.05
2023-05-14T02:51:40.750Z,12.32
2023-05-14T02:54:07.233Z,14.63
2023-05-14T02:56:33.844Z,14.30
2023-05-14T02:59:00.513Z,15.95
2023-05-14T03:01:27.354Z,14.70
2023-05-14T03:03:54.275Z,16.02
2023-05-14T03:06:20.685Z,14.68
2023-05-14T03:08:47.069Z,16.42
2023-05-14T03:11:13.602Z,16.10
2023-05-14T03:13:40.019Z,13.60
2023-05-14T03:16:06.685Z,14.85
2023-05-14T03:18:34.724Z,13.68
2023-05-14T03:21:01.380Z,11.68
2023-05-14T03:23:27.934Z,13.10
2023-05-14T03:25:54.382Z,14.23
2023-05-14T03:28:20.813Z,13.93
2023-05-14T03:30:47.314Z,14.02
2023-05-14T03:33:13.831Z,15.32
2023-05-14T03:35:40.277Z,15.10
2023-05-14T03:38:07.468Z,11.77
2023-05-14T03:40:34.345Z,14.50
2023-05-14T03:43:00.956Z,11.90
2023-05-14T03:45:28.668Z,19.38
2023-05-14T03:47:55.279Z,20.15
2023-05-14T03:50:25.319Z,11.80
2023-05-14T03:52:52.536Z,15.25
2023-05-14T03:55:19.925Z,15.38
2023-05-14T03:57:46.608Z,13.32
2023-05-14T04:00:13.523Z,13.25
2023-05-14T04:02:45.716Z,12.95
2023-05-14T04:05:12.438Z,14.80
2023-05-14T04:07:38.847Z,18.20
2023-05-14T04:10:06.309Z,15.70
2023-05-14T04:12:34.989Z,15.05
2023-05-14T04:15:01.745Z,15.52
2023-05-14T04:17:28.408Z,13.32
2023-05-14T04:19:54.854Z,15.95
2023-05-14T04:22:21.271Z,18.15
2023-05-14T04:24:47.681Z,14.43
2023-05-14T04:27:21.361Z,16.08
2023-05-14T04:29:48.759Z,15.63
2023-05-14T04:32:15.156Z,15.15
2023-05-14T04:34:41.537Z,15.40
2023-05-14T04:37:07.990Z,16.10
2023-05-14T04:39:34.520Z,14.07
2023-05-14T04:42:00.909Z,17.48
2023-05-14T04:44:27.354Z,17.60
2023-05-14T04:46:53.756Z,15.23
2023-05-14T04:49:20.929Z,19.27
2023-05-14T04:51:48.076Z,15.35
2023-05-14T04:54:14.513Z,16.15
2023-05-14T04:56:41.070Z,12.43
2023-05-14T04:59:07.742Z,16.55
2023-05-14T05:01:34.186Z,13.38
2023-05-14T05:04:00.774Z,16.30
2023-05-14T05:06:27.342Z,13.00
2023-05-14T05:08:53.787Z,12.73
2023-05-14T05:11:21.249Z,14.52
2023-05-14T05:13:47.692Z,13.27
2023-05-14T05:16:14.334Z,11.20
2023-05-14T05:18:41.218Z,15.73
2023-05-14T05:21:07.726Z,15.18
2023-05-14T05:23:34.194Z,13.48
2023-05-14T05:26:00.721Z,13.75
2023-05-14T05:28:27.453Z,11.52
2023-05-14T05:30:53.934Z,12.63
2023-05-14T05:33:20.654Z,11.07
2023-05-14T05:35:48.173Z,14.23
2023-05-14T05:38:15.795Z,16.00
2023-05-14T05:40:42.302Z,13.35
2023-05-14T05:43:08.688Z,13.15
2023-05-14T05:45:35.094Z,12.32
2023-05-14T05:48:01.566Z,11.48
2023-05-14T05:50:28.062Z,15.75
2023-05-14T05:52:54.546Z,15.35
2023-05-14T05:55:21.186Z,17.50
2023-05-14T05:57:47.603Z,11.07
2023-05-14T06:00:14.616Z,12.85
2023-05-14T06:02:41.599Z,12.65
2023-05-14T06:05:09.470Z,14.93
2023-05-14T06:07:35.973Z,10.35
2023-05-14T06:10:02.727Z,13.35
2023-05-14T06:12:29.097Z,12.43
2023-05-14T06:14:57.609Z,14.25
2023-05-14T06:17:24.951Z,14.65
2023-05-14T06:19:51.884Z,14.75
2023-05-14T06:22:18.523Z,10.90
2023-05-14T06:24:44.944Z,10.57
2023-05-14T06:27:11.544Z,14.85
2023-05-14T06:29:38.376Z,12.50
2023-05-14T06:32:05.266Z,10.73
2023-05-14T06:34:32.016Z,8.82
2023-05-14T06:36:58.420Z,10.60
2023-05-14T06:39:24.911Z,10.43
2023-05-14T06:41:51.638Z,10.65
2023-05-14T06:44:19.451Z,8.85
2023-05-14T06:46:45.938Z,11.73
2023-05-14T06:49:12.397Z,11.63
2023-05-14T06:51:39.067Z,14.00
2023-05-14T06:54:05.503Z,12.38
2023-05-14T06:56:31.928Z,11.10
2023-05-14T06:58:58.360Z,12.55
2023-05-14T07:01:24.838Z,8.55
2023-05-14T07:03:51.393Z,8.93
2023-05-14T07:06:17.901Z,10.57
2023-05-14T07:08:47.259Z,8.13
2023-05-14T07:11:13.989Z,9.70
2023-05-14T07:13:41.082Z,11.18
2023-05-14T07:16:11.290Z,10.05
2023-05-14T07:18:37.948Z,10.70
2023-05-14T07:21:07.339Z,10.88
2023-05-14T07:23:36.200Z,10.25
2023-05-14T07:26:03.062Z,10.45
2023-05-14T07:28:29.469Z,12.77
2023-05-14T07:30:56.011Z,7.50
2023-05-14T07:33:22.670Z,11.27
2023-05-14T07:35:49.269Z,10.63
2023-05-14T07:38:16.147Z,7.70
2023-05-14T07:40:43.260Z,9.00
2023-05-14T07:43:10.279Z,8.70
2023-05-14T07:45:37.661Z,11.57
2023-05-14T07:48:04.328Z,8.80
2023-05-14T07:50:31.319Z,13.18
2023-05-14T07:52:57.821Z,9.40
2023-05-14T07:55:24.273Z,10.05
2023-05-14T07:57:50.848Z,9.98
2023-05-14T08:00:17.378Z,10.30
2023-05-14T08:02:44.484Z,9.80
2023-05-14T08:05:11.396Z,10.38
2023-05-14T08:07:37.862Z,10.07
2023-05-14T08:10:04.593Z,9.57
2023-05-14T08:12:31.673Z,11.05
2023-05-14T08:14:58.143Z,9.98
2023-05-14T08:17:24.581Z,9.43
2023-05-14T08:19:51.022Z,9.82
2023-05-14T08:22:17.400Z,10.07
2023-05-14T08:24:43.846Z,12.32
2023-05-14T08:27:10.386Z,9.93
2023-05-14T08:29:36.945Z,10.50
2023-05-14T08:32:08.768Z,11.13
2023-05-14T08:34:44.024Z,10.93
2023-05-14T08:37:10.628Z,11.23
2023-05-14T08:39:37.088Z,11.73
2023-05-14T08:42:06.836Z,10.82
2023-05-14T08:44:39.213Z,10.45
2023-05-14T08:47:06.923Z,10.07
2023-05-14T08:49:46.253Z,7.47
2023-05-14T08:52:12.991Z,9.50
2023-05-14T08:54:40.364Z,11.43
2023-05-14T08:57:09.701Z,11.90
2023-05-14T08:59:36.382Z,10.95
2023-05-14T09:02:06.205Z,8.10
2023-05-14T09:04:33.403Z,10.85
2023-05-14T09:07:01.965Z,7.32
2023-05-14T09:09:28.664Z,10.80
2023-05-14T09:11:55.218Z,8.68
2023-05-14T09:14:23.155Z,7.18
2023-05-14T09:16:51.063Z,11.40
2023-05-14T09:19:21.669Z,12.65
2023-05-14T09:21:49.473Z,10.25
2023-05-14T09:24:23.982Z,9.18
2023-05-14T09:26:52.190Z,10.48
2023-05-14T09:29:18.761Z,9.95
2023-05-14T09:31:45.791Z,7.18
2023-05-14T09:34:23.189Z,9.75
2023-05-14T09:36:49.674Z,10.88
2023-05-14T09:39:17.566Z,8.63
2023-05-14T09:41:43.998Z,9.20
2023-05-14T09:44:10.840Z,13.48
2023-05-14T09:46:37.221Z,10.38
2023-05-14T09:49:03.581Z,13.75
2023-05-14T09:51:31.902Z,9.70
2023-05-14T09:53:58.764Z,9.35
2023-05-14T09:56:25.948Z,8.32
2023-05-14T09:58:52.483Z,8.55
2023-05-14T10:01:20.739Z,8.90
2023-05-14T10:03:47.331Z,11.07
2023-05-14T10:06:17.404Z,6.85
2023-05-14T10:08:45.335Z,10.30
2023-05-14T10:11:20.679Z,9.48
2023-05-14T10:14:02.373Z,12.65
2023-05-14T10:16:33.970Z,7.57
2023-05-14T10:19:07.876Z,10.32
2023-05-14T10:21:36.800Z,6.38
2023-05-14T10:24:07.436Z,9.48
2023-05-14T10:26:39.400Z,11.05
2023-05-14T10:29:06.869Z,6.43
2023-05-14T10:31:55.314Z,12.05
2023-05-14T10:34:40.934Z,8.65
2023-05-14T10:37:23.899Z,6.75
2023-05-14T10:39:51.507Z,7.32
2023-05-14T10:42:27.298Z,9.02
2023-05-14T10:45:01.659Z,8.10
2023-05-14T10:47:29.193Z,7.55
2023-05-14T10:49:58.917Z,12.50
2023-05-14T10:52:26.481Z,12.10
2023-05-14T10:55:07.710Z,9.38
2023-05-14T10:57:38.180Z,8.93
2023-05-14T11:00:07.701Z,10.40
2023-05-14T11:02:39.044Z,8.27
2023-05-14T11:05:11.608Z,13.15
2023-05-14T11:07:40.191Z,8.60
2023-05-14T11:10:14.299Z,8.70
2023-05-14T11:12:43.017Z,12.75
2023-05-14T11:15:11.779Z,9.18
2023-05-14T11:17:40.619Z,10.10
2023-05-14T11:20:08.751Z,9.95
2023-05-14T11:22:36.423Z,8.23
2023-05-14T11:25:03.721Z,9.38
2023-05-14T11:27:31.352Z,8.88
2023-05-14T11:29:58.122Z,8.88
2023-05-14T11:32:25.789Z,10.95
2023-05-14T11:34:52.360Z,10.57
2023-05-14T11:37:18.937Z,8.90
2023-05-14T11:39:54.323Z,9.70
2023-05-14T11:42:22.290Z,9.73
2023-05-14T11:44:51.707Z,8.57
2023-05-14T11:47:19.562Z,6.03
2023-05-14T11:49:46.625Z,8.38
2023-05-14T11:52:15.732Z,8.32
2023-05-14T11:54:44.089Z,7.78
2023-05-14T11:57:13.210Z,10.10
2023-05-14T11:59:40.170Z,9.57
2023-05-14T12:02:10.759Z,6.72
2023-05-14T12:04:37.347Z,9.88
2023-05-14T12:07:15.148Z,7.85
2023-05-14T12:09:48.864Z,6.90
2023-05-14T12:12:22.707Z,7.88
2023-05-14T12:14:50.414Z,7.60
2023-05-14T12:17:23.443Z,9.27
2023-05-14T12:19:52.069Z,9.27
2023-05-14T12:22:23.047Z,10.38
2023-05-14T12:24:56.762Z,8.85
2023-05-14T12:27:28.106Z,8.90
2023-05-14T12:30:19.115Z,7.60
2023-05-14T12:32:51.136Z,7.80
2023-05-14T12:35:17.719Z,9.25
2023-05-14T12:37:44.169Z,7.43
2023-05-14T12:40:11.432Z,7.32
2023-05-14T12:42:37.929Z,6.90
2023-05-14T12:45:07.753Z,8.30
2023-05-14T12:47:34.558Z,7.20
2023-05-14T12:50:01.243Z,7.65
2023-05-14T12:52:37.430Z,6.38
2023-05-14T12:55:05.471Z,6.68
2023-05-14T12:57:32.257Z,7.03
2023-05-14T12:59:58.853Z,7.20
2023-05-14T13:02:25.545Z,9.13
2023-05-14T13:04:51.999Z,8.30
2023-05-14T13:07:18.451Z,9.30
2023-05-14T13:09:44.845Z,10.25
2023-05-14T13:12:11.262Z,7.70
2023-05-14T13:14:37.701Z,10.68
2023-05-14T13:17:05.193Z,9.35
2023-05-14T13:19:31.761Z,7.57
2023-05-14T13:21:58.222Z,9.90
2023-05-14T13:24:25.060Z,7.53
2023-05-14T13:26:51.439Z,6.05
2023-05-14T13:29:17.870Z,6.43
2023-05-14T13:31:44.353Z,8.00
2023-05-14T13:34:10.767Z,6.38
2023-05-14T13:36:39.595Z,7.70
2023-05-14T13:39:07.105Z,7.63
2023-05-14T13:41:35.642Z,8.93
2023-05-14T13:44:02.110Z,7.55
2023-05-14T13:46:28.772Z,7.35
2023-05-14T13:48:55.339Z,6.50
2023-05-14T13:51:23.082Z,5.28
2023-05-14T13:53:49.870Z,8.10
2023-05-14T13:56:16.260Z,8.63
2023-05-14T13:58:42.683Z,7.05
2023-05-14T14:01:09.163Z,7.82
2023-05-14T14:03:35.707Z,5.65
2023-05-14T14:06:02.121Z,5.85
2023-05-14T14:08:28.571Z,6.78
2023-05-14T14:10:55.414Z,6.72
2023-05-14T14:13:22.803Z,8.13
2023-05-14T14:15:49.920Z,7.70
2023-05-14T14:18:16.375Z,6.53
2023-05-14T14:20:42.792Z,6.43
2023-05-14T14:23:09.166Z,8.43
2023-05-14T14:25:35.542Z,4.20
2023-05-14T14:28:01.972Z,6.15
2023-05-14T14:30:28.519Z,5.53
2023-05-14T14:32:55.093Z,6.47
2023-05-14T14:35:21.747Z,9.30
2023-05-14T14:37:53.572Z,5.93
2023-05-14T14:40:20.188Z,10.90
2023-05-14T14:42:46.664Z,5.80
2023-05-14T14:45:13.397Z,8.00
2023-05-14T14:47:44.500Z,6.32
2023-05-14T14:50:12.334Z,8.15
2023-05-14T14:52:39.934Z,11.23
2023-05-14T14:55:06.592Z,7.13
2023-05-14T14:57:32.976Z,6.30
2023-05-14T15:00:00.830Z,6.93
2023-05-14T15:02:28.542Z,9.23
2023-05-14T15:04:55.031Z,10.23
2023-05-14T15:07:22.113Z,8.10
2023-05-14T15:09:48.577Z,7.90
2023-05-14T15:12:14.974Z,7.43
2023-05-14T15:14:41.398Z,5.63
2023-05-14T15:17:07.930Z,7.85
2023-05-14T15:19:34.369Z,8.27
2023-05-14T15:22:00.828Z,7.88
2023-05-14T15:24:27.325Z,7.13
2023-05-14T15:26:53.910Z,6.43
2023-05-14T15:29:20.574Z,8.35
2023-05-14T15:31:47.293Z,8.65
2023-05-14T15:34:13.842Z,6.97
2023-05-14T15:36:40.458Z,8.82
2023-05-14T15:39:10.115Z,6.68
2023-05-14T15:41:36.635Z,7.88
2023-05-14T15:44:03.141Z,6.85
2023-05-14T15:46:30.231Z,8.52
2023-05-14T15:48:57.765Z,7.60
2023-05-14T15:51:24.198Z,7.70
2023-05-14T15:53:52.937Z,7.28
2023-05-14T15:56:19.675Z,6.88
2023-05-14T15:58:46.210Z,11.63
2023-05-14T16:01:12.663Z,6.38
2023-05-14T16:03:39.250Z,6.55
2023-05-14T16:06:06.080Z,6.45
2023-05-14T16:08:32.537Z,10.35
2023-05-14T16:10:58.974Z,5.72
2023-05-14T16:13:25.363Z,6.03
2023-05-14T16:15:51.818Z,9.93
2023-05-14T16:18:18.242Z,11.50
2023-05-14T16:20:44.724Z,8.15
2023-05-14T16:23:11.121Z,9.02
2023-05-14T16:25:38.284Z,7.63
2023-05-14T16:28:04.888Z,7.25
2023-05-14T16:30:31.399Z,6.25
2023-05-14T16:32:57.897Z,7.85
2023-05-14T16:35:24.527Z,8.20
2023-05-14T16:37:50.904Z,10.02
2023-05-14T16:40:19.539Z,8.32
2023-05-14T16:42:48.500Z,8.00
2023-05-14T16:47:42.120Z,7.20
2023-05-14T16:50:08.954Z,7.63
2023-05-14T16:52:35.453Z,8.13
2023-05-14T16:55:01.897Z,7.53
2023-05-14T16:57:28.329Z,10.55
2023-05-14T16:59:54.765Z,11.40
2023-05-14T17:02:21.142Z,8.43
2023-05-14T17:04:47.591Z,8.13
2023-05-14T17:07:14.385Z,8.05
2023-05-14T17:09:40.873Z,8.40
2023-05-14T17:12:07.621Z,7.72
2023-05-14T17:14:33.998Z,9.10
2023-05-14T17:17:00.426Z,8.40
2023-05-14T17:19:26.820Z,8.80
2023-05-14T17:21:53.283Z,7.82
2023-05-14T17:24:19.664Z,8.85
2023-05-14T17:26:46.083Z,13.40
2023-05-14T17:29:12.470Z,8.88
2023-05-14T17:31:38.944Z,7.38
2023-05-14T17:34:05.507Z,13.48
2023-05-14T17:36:32.256Z,10.30
2023-05-14T17:38:58.690Z,9.27
2023-05-14T17:41:25.125Z,10.55
2023-05-14T17:43:52.437Z,10.98
2023-05-14T17:46:19.131Z,10.77
2023-05-14T17:48:45.585Z,13.27
2023-05-14T17:51:12.018Z,8.18
2023-05-14T17:53:38.600Z,8.20
2023-05-14T17:56:05.252Z,14.00
2023-05-14T17:58:31.744Z,11.70
2023-05-14T18:00:58.272Z,13.55
2023-05-14T18:03:24.797Z,13.02
2023-05-14T18:05:51.917Z,10.88
2023-05-14T18:08:18.356Z,9.02
2023-05-14T18:10:44.774Z,9.32
2023-05-14T18:13:11.150Z,9.13
2023-05-14T18:15:37.756Z,8.70
2023-05-14T18:18:04.556Z,8.63
2023-05-14T18:20:32.730Z,6.70
2023-05-14T18:22:59.854Z,8.13
2023-05-14T18:25:26.475Z,6.90
2023-05-14T18:27:53.794Z,7.20
2023-05-14T18:30:20.345Z,9.63
2023-05-14T18:32:46.861Z,12.27
2023-05-14T18:35:13.568Z,6.72
2023-05-14T18:37:40.743Z,7.63
2023-05-14T18:40:07.980Z,9.38
2023-05-14T18:42:34.816Z,8.18
2023-05-14T18:45:01.453Z,9.70
2023-05-14T18:47:28.045Z,10.43
2023-05-14T18:49:55.775Z,7.28
2023-05-14T18:52:22.846Z,8.18
2023-05-14T18:54:50.824Z,11.93
2023-05-14T18:57:17.354Z,7.97
2023-05-14T18:59:43.788Z,11.20
2023-05-14T19:02:10.229Z,10.55
2023-05-14T19:04:50.605Z,11.07
2023-05-14T19:07:18.046Z,7.75
2023-05-14T19:09:44.487Z,7.90
2023-05-14T19:12:10.860Z,5.97
2023-05-14T19:14:37.290Z,7.65
2023-05-14T19:17:03.998Z,7.45
2023-05-14T19:19:30.668Z,7.63
2023-05-14T19:21:57.114Z,8.30
2023-05-14T19:24:23.529Z,9.10
2023-05-14T19:26:50.038Z,7.32
2023-05-14T19:29:16.565Z,13.77
2023-05-14T19:31:43.047Z,10.05
2023-05-14T19:34:10.198Z,7.03
2023-05-14T19:36:36.581Z,9.07
2023-05-14T19:39:03.045Z,9.30
2023-05-14T19:41:29.501Z,10.38
2023-05-14T19:43:56.029Z,9.52
2023-05-14T19:46:22.579Z,11.50
2023-05-14T19:48:49.049Z,11.20
2023-05-14T19:51:15.568Z,9.68
2023-05-14T19:53:42.000Z,10.13
2023-05-14T19:56:08.472Z,9.98
2023-05-14T19:58:34.960Z,9.00
2023-05-14T20:01:01.386Z,11.35
2023-05-14T20:03:27.885Z,10.88
2023-05-14T20:05:55.275Z,11.25
2023-05-14T20:08:22.149Z,9.65
2023-05-14T20:10:48.997Z,13.60
2023-05-14T20:13:15.616Z,10.90
2023-05-14T20:15:42.855Z,10.13
2023-05-14T20:18:09.598Z,7.85
2023-05-14T20:20:36.533Z,10.40
2023-05-14T20:23:03.506Z,9.82
2023-05-14T20:25:30.170Z,10.10
2023-05-14T20:27:56.774Z,9.68
2023-05-14T20:30:23.310Z,9.73
2023-05-14T20:32:49.893Z,10.00
2023-05-14T20:35:16.426Z,9.05
2023-05-14T20:37:42.886Z,8.63
2023-05-14T20:40:12.192Z,10.90
2023-05-14T20:42:38.976Z,14.07
2023-05-14T20:45:06.602Z,12.43
2023-05-14T20:47:34.084Z,9.00
2023-05-14T20:50:00.829Z,14.20
2023-05-14T20:52:27.519Z,14.20
2023-05-14T20:54:53.923Z,11.13
2023-05-14T20:57:20.471Z,10.80
2023-05-14T20:59:47.495Z,8.85
2023-05-14T21:02:14.039Z,12.80
2023-05-14T21:04:41.033Z,15.48
2023-05-14T21:07:07.695Z,12.10
2023-05-14T21:09:34.114Z,12.48
2023-05-14T21:12:00.524Z,9.95
2023-05-14T21:14:26.950Z,10.63
2023-05-14T21:16:53.367Z,13.25
2023-05-14T21:19:19.883Z,12.23
2023-05-14T21:21:47.250Z,10.15
2023-05-14T21:24:13.742Z,14.27
2023-05-14T21:26:41.285Z,13.65
2023-05-14T21:29:07.749Z,13.45
2023-05-14T21:31:34.440Z,14.95
2023-05-14T21:34:00.911Z,12.27
2023-05-14T21:36:27.493Z,12.85
2023-05-14T21:38:53.930Z,9.32
2023-05-14T21:41:21.041Z,10.38
2023-05-14T21:43:47.497Z,13.98
2023-05-14T21:46:14.080Z,11.40
2023-05-14T21:48:40.602Z,12.00
2023-05-14T21:51:07.408Z,9.45
2023-05-14T21:53:34.637Z,11.10
2023-05-14T21:56:01.054Z,14.48
2023-05-14T21:58:27.751Z,11.10
2023-05-14T22:00:54.186Z,12.10
2023-05-14T22:03:20.836Z,14.20
2023-05-14T22:05:47.579Z,8.32
2023-05-14T22:08:13.963Z,11.77
2023-05-14T22:10:40.723Z,14.35
2023-05-14T22:13:07.091Z,9.57
2023-05-14T22:15:34.246Z,14.00
2023-05-14T22:18:00.697Z,14.25
2023-05-14T22:20:27.086Z,12.00
2023-05-14T22:22:53.563Z,10.95
2023-05-14T22:25:19.956Z,12.50
2023-05-14T22:27:46.370Z,10.00
2023-05-14T22:30:12.914Z,12.27
2023-05-14T22:32:39.387Z,13.15
2023-05-14T22:35:05.956Z,11.15
2023-05-14T22:37:32.409Z,11.80
2023-05-14T22:39:59.116Z,13.00
2023-05-14T22:42:27.147Z,12.00
2023-05-14T22:44:53.715Z,14.38
2023-05-14T22:47:20.265Z,13.05
2023-05-14T22:49:46.751Z,11.82
2023-05-14T22:52:13.202Z,13.38
2023-05-14T22:54:39.612Z,15.45
2023-05-14T22:57:06.570Z,14.43
2023-05-14T22:59:33.072Z,13.45
2023-05-14T23:01:59.487Z,11.65
2023-05-14T23:04:26.128Z,13.13
2023-05-14T23:06:52.623Z,13.10
2023-05-14T23:09:19.138Z,16.60
2023-05-14T23:11:46.069Z,13.43
2023-05-14T23:14:12.521Z,13.75
2023-05-14T23:16:39.499Z,13.02
2023-05-14T23:19:05.999Z,13.38
2023-05-14T23:21:32.979Z,11.65
2023-05-14T23:23:59.508Z,10.38
2023-05-14T23:26:26.019Z,13.98
2023-05-14T23:28:52.497Z,14.57
2023-05-14T23:31:18.904Z,10.30
2023-05-14T23:33:46.282Z,12.95
2023-05-14T23:36:12.905Z,13.77
2023-05-14T23:38:40.624Z,13.63
2023-05-14T23:41:07.128Z,13.02
2023-05-14T23:43:33.707Z,13.98
2023-05-14T23:46:00.659Z,11.30
2023-05-14T23:48:27.181Z,11.35
2023-05-14T23:50:53.623Z,13.98
2023-05-14T23:53:20.333Z,13.43
2023-05-14T23:55:47.104Z,9.23
2023-05-14T23:58:13.550Z,11.40
